createdAt,value
2018-07-23T00:01:04.397Z,18.03
2018-07-23T00:03:31.961Z,17.30
2018-07-23T00:05:59.601Z,14.10
2018-07-23T00:08:27.267Z,15.73
2018-07-23T00:10:54.902Z,17.40
2018-07-23T00:13:22.508Z,17.17
2018-07-23T00:15:50.181Z,17.90
2018-07-23T00:18:17.786Z,18.10
2018-07-23T00:20:45.448Z,19.47
2018-07-23T00:23:13.054Z,18.77
2018-07-23T00:25:40.774Z,17.30
2018-07-23T00:28:08.405Z,19.17
2018-07-23T00:30:36.022Z,18.13
2018-07-23T00:33:03.648Z,18.90
2018-07-23T00:35:31.951Z,19.37
2018-07-23T00:37:59.635Z,20.43
2018-07-23T00:40:27.235Z,19.70
2018-07-23T00:42:54.851Z,24.23
2018-07-23T00:45:22.493Z,22.60
2018-07-23T00:47:50.106Z,20.37
2018-07-23T00:50:17.704Z,18.27
2018-07-23T00:52:45.364Z,19.50
2018-07-23T00:55:13.059Z,20.70
2018-07-23T00:57:40.662Z,18.67
2018-07-23T01:00:08.602Z,19.23
2018-07-23T01:02:36.290Z,20.87
2018-07-23T01:05:03.914Z,21.40
2018-07-23T01:07:31.612Z,20.47
2018-07-23T01:09:59.243Z,19.07
2018-07-23T01:12:30.646Z,20.10
2018-07-23T01:14:58.242Z,18.70
2018-07-23T01:17:25.890Z,19.13
2018-07-23T01:19:55.654Z,17.53
2018-07-23T01:22:24.445Z,20.60
2018-07-23T01:24:52.710Z,18.70
2018-07-23T01:27:20.312Z,19.00
2018-07-23T01:29:48.154Z,20.87
2018-07-23T01:32:16.166Z,17.77
2018-07-23T01:34:44.090Z,17.53
2018-07-23T01:37:11.758Z,17.77
2018-07-23T01:39:39.486Z,17.10
2018-07-23T01:42:07.216Z,16.47
2018-07-23T01:44:38.231Z,18.80
2018-07-23T01:47:07.000Z,19.43
2018-07-23T01:49:34.772Z,19.13
2018-07-23T01:52:02.459Z,17.90
2018-07-23T01:54:30.170Z,18.77
2018-07-23T01:56:57.844Z,19.37
2018-07-23T01:59:25.550Z,20.80
2018-07-23T02:01:53.202Z,19.03
2018-07-23T02:04:20.866Z,19.60
2018-07-23T02:06:48.549Z,18.70
2018-07-23T02:09:17.016Z,19.20
2018-07-23T02:11:44.701Z,20.10
2018-07-23T02:14:12.333Z,18.37
2018-07-23T02:16:39.963Z,18.53
2018-07-23T02:19:07.610Z,19.60
2018-07-23T02:21:35.785Z,20.30
2018-07-23T02:24:03.977Z,18.67
2018-07-23T02:26:31.570Z,19.70
2018-07-23T02:28:59.264Z,21.13
2018-07-23T02:31:26.913Z,21.47
2018-07-23T02:33:54.569Z,20.93
2018-07-23T02:36:22.173Z,21.13
2018-07-23T02:38:49.865Z,19.87
2018-07-23T02:41:17.620Z,21.03
2018-07-23T02:43:45.369Z,21.10
2018-07-23T02:46:13.044Z,21.90
2018-07-23T02:48:40.697Z,23.37
2018-07-23T02:51:09.065Z,24.50
2018-07-23T02:53:36.720Z,23.33
2018-07-23T02:56:04.371Z,23.70
2018-07-23T02:58:32.010Z,28.53
2018-07-23T03:00:59.627Z,25.97
2018-07-23T03:03:27.261Z,25.57
2018-07-23T03:05:54.851Z,24.70
2018-07-23T03:08:22.476Z,27.77
2018-07-23T03:10:50.054Z,26.80
2018-07-23T03:13:17.706Z,26.90
2018-07-23T03:15:45.348Z,23.73
2018-07-23T03:18:12.972Z,27.23
2018-07-23T03:20:40.560Z,28.37
2018-07-23T03:23:08.258Z,31.77
2018-07-23T03:25:35.932Z,30.47
2018-07-23T03:28:03.581Z,28.00
2018-07-23T03:30:31.353Z,31.17
2018-07-23T03:32:59.048Z,26.60
2018-07-23T03:35:27.067Z,27.80
2018-07-23T03:37:54.730Z,27.23
2018-07-23T03:40:22.453Z,29.93
2018-07-23T03:42:50.123Z,30.20
2018-07-23T03:45:17.724Z,29.13
2018-07-23T03:47:45.377Z,30.60
2018-07-23T03:50:12.975Z,29.63
2018-07-23T03:52:40.600Z,31.10
2018-07-23T03:55:08.243Z,32.63
2018-07-23T03:57:35.884Z,30.13
2018-07-23T04:00:04.107Z,36.80
2018-07-23T04:02:31.723Z,28.57
2018-07-23T04:04:59.403Z,29.50
2018-07-23T04:07:27.086Z,30.90
2018-07-23T04:09:54.735Z,28.83
2018-07-23T04:12:22.310Z,31.63
2018-07-23T04:14:49.980Z,30.67
2018-07-23T04:17:18.666Z,30.37
2018-07-23T04:19:46.320Z,32.43
2018-07-23T04:22:13.984Z,30.60
2018-07-23T04:24:41.598Z,29.20
2018-07-23T04:27:09.220Z,31.50
2018-07-23T04:29:36.894Z,28.47
2018-07-23T04:32:04.586Z,29.27
2018-07-23T04:34:32.224Z,27.63
2018-07-23T04:36:59.833Z,27.60
2018-07-23T04:39:27.423Z,32.83
2018-07-23T04:41:55.042Z,25.97
2018-07-23T04:44:22.653Z,27.60
2018-07-23T04:46:50.269Z,26.70
2018-07-23T04:49:17.965Z,26.07
2018-07-23T04:51:45.572Z,25.20
2018-07-23T04:54:13.287Z,33.23
2018-07-23T04:56:40.897Z,22.37
2018-07-23T04:59:08.503Z,25.40
2018-07-23T05:01:36.077Z,22.50
2018-07-23T05:04:03.892Z,20.80
2018-07-23T05:06:31.487Z,26.93
2018-07-23T05:08:59.084Z,23.20
2018-07-23T05:11:26.691Z,23.30
2018-07-23T05:13:54.343Z,27.77
2018-07-23T05:16:21.932Z,20.57
2018-07-23T05:18:49.526Z,22.73
2018-07-23T05:21:17.090Z,21.07
2018-07-23T05:23:44.737Z,20.50
2018-07-23T05:26:12.384Z,25.30
2018-07-23T05:28:39.930Z,20.47
2018-07-23T05:31:07.604Z,24.93
2018-07-23T05:33:35.205Z,23.50
2018-07-23T05:36:02.841Z,21.33
2018-07-23T05:38:30.612Z,21.17
2018-07-23T05:40:58.271Z,20.50
2018-07-23T05:43:25.892Z,20.83
2018-07-23T05:45:53.526Z,22.20
2018-07-23T05:48:27.993Z,28.73
2018-07-23T05:50:55.638Z,23.53
2018-07-23T05:53:23.270Z,21.20
2018-07-23T05:55:50.883Z,20.80
2018-07-23T05:58:18.439Z,22.93
2018-07-23T06:00:46.063Z,18.50
2018-07-23T06:03:16.489Z,19.63
2018-07-23T06:05:44.149Z,18.30
2018-07-23T06:08:11.749Z,18.43
2018-07-23T06:10:39.603Z,20.90
2018-07-23T06:13:07.342Z,21.63
2018-07-23T06:15:34.988Z,17.77
2018-07-23T06:18:02.641Z,16.53
2018-07-23T06:20:30.253Z,15.70
2018-07-23T06:22:57.940Z,18.23
2018-07-23T06:25:25.547Z,16.00
2018-07-23T06:27:53.415Z,17.97
2018-07-23T06:30:21.095Z,22.80
2018-07-23T06:32:48.653Z,16.17
2018-07-23T06:35:16.328Z,13.53
2018-07-23T06:37:43.925Z,15.27
2018-07-23T06:40:11.498Z,12.60
2018-07-23T06:42:39.082Z,12.70
2018-07-23T06:45:06.679Z,13.03
2018-07-23T06:47:34.505Z,14.30
2018-07-23T06:50:02.510Z,13.43
2018-07-23T06:52:30.114Z,12.33
2018-07-23T06:54:59.039Z,14.93
2018-07-23T06:57:26.740Z,12.87
2018-07-23T06:59:54.333Z,15.80
2018-07-23T07:02:21.961Z,12.90
2018-07-23T07:04:49.573Z,11.70
2018-07-23T07:07:17.209Z,10.93
2018-07-23T07:09:44.834Z,8.77
2018-07-23T07:12:12.389Z,9.73
2018-07-23T07:14:39.961Z,8.60
2018-07-23T07:17:07.537Z,9.23
2018-07-23T07:19:35.164Z,10.10
2018-07-23T07:22:02.811Z,12.93
2018-07-23T07:24:30.411Z,12.33
2018-07-23T07:26:58.087Z,10.73
2018-07-23T07:29:25.752Z,12.60
2018-07-23T07:31:53.389Z,9.50
2018-07-23T07:34:21.010Z,11.80
2018-07-23T07:36:48.639Z,10.27
2018-07-23T07:39:16.259Z,11.23
2018-07-23T07:41:43.856Z,17.23
2018-07-23T07:44:11.461Z,10.73
2018-07-23T07:46:40.174Z,9.70
2018-07-23T07:49:07.908Z,9.30
2018-07-23T07:51:35.555Z,8.93
2018-07-23T07:54:03.290Z,13.40
2018-07-23T07:56:31.636Z,12.10
2018-07-23T07:58:59.279Z,9.97
2018-07-23T08:01:26.870Z,9.97
2018-07-23T08:03:54.548Z,8.93
2018-07-23T08:06:22.210Z,15.80
2018-07-23T08:08:49.901Z,11.30
2018-07-23T08:11:17.556Z,12.10
2018-07-23T08:13:45.482Z,7.93
2018-07-23T08:16:13.130Z,9.67
2018-07-23T08:18:40.880Z,8.30
2018-07-23T08:21:08.526Z,8.50
2018-07-23T08:23:36.220Z,9.30
2018-07-23T08:26:04.124Z,7.57
2018-07-23T08:28:31.784Z,7.30
2018-07-23T08:30:59.475Z,10.03
2018-07-23T08:33:27.089Z,7.80
2018-07-23T08:35:54.747Z,8.10
2018-07-23T08:38:22.439Z,6.83
2018-07-23T08:40:50.128Z,7.33
2018-07-23T08:43:17.972Z,7.40
2018-07-23T08:45:45.631Z,6.03
2018-07-23T08:48:13.252Z,6.10
2018-07-23T08:50:40.888Z,8.43
2018-07-23T08:53:08.674Z,5.50
2018-07-23T08:55:36.372Z,5.70
2018-07-23T08:58:04.044Z,6.27
2018-07-23T09:00:31.681Z,7.77
2018-07-23T09:02:59.360Z,6.13
2018-07-23T09:05:26.984Z,7.03
2018-07-23T09:07:54.668Z,5.80
2018-07-23T09:10:22.346Z,6.27
2018-07-23T09:12:50.017Z,6.03
2018-07-23T09:15:17.674Z,6.50
2018-07-23T09:17:45.314Z,7.13
2018-07-23T09:20:12.962Z,7.47
2018-07-23T09:22:40.567Z,6.27
2018-07-23T09:25:09.204Z,9.83
2018-07-23T09:27:39.281Z,7.13
2018-07-23T09:30:11.594Z,9.03
2018-07-23T09:32:39.249Z,7.40
2018-07-23T09:35:06.888Z,5.93
2018-07-23T09:37:35.032Z,6.60
2018-07-23T09:40:02.689Z,5.77
2018-07-23T09:42:30.480Z,10.03
2018-07-23T09:44:58.158Z,6.67
2018-07-23T09:47:25.782Z,7.30
2018-07-23T09:49:53.411Z,6.23
2018-07-23T09:52:21.067Z,5.23
2018-07-23T09:54:48.690Z,6.10
2018-07-23T09:59:50.506Z,16.60
2018-07-23T10:02:18.068Z,5.87
2018-07-23T10:04:45.662Z,10.03
2018-07-23T10:07:13.248Z,5.67
2018-07-23T10:09:40.912Z,13.30
2018-07-23T10:12:08.571Z,7.50
2018-07-23T10:14:36.212Z,6.83
2018-07-23T10:17:03.852Z,20.93
2018-07-23T10:19:31.453Z,6.67
2018-07-23T10:21:59.155Z,6.13
2018-07-23T10:24:26.891Z,11.83
2018-07-23T10:26:54.468Z,12.97
2018-07-23T10:29:22.003Z,5.90
2018-07-23T10:31:49.615Z,7.30
2018-07-23T10:34:17.191Z,5.47
2018-07-23T10:36:44.844Z,6.10
2018-07-23T10:39:12.540Z,4.20
2018-07-23T10:41:40.245Z,5.70
2018-07-23T10:44:07.892Z,5.20
2018-07-23T10:46:35.488Z,7.37
2018-07-23T10:49:03.136Z,5.37
2018-07-23T10:51:30.781Z,5.90
2018-07-23T10:53:58.563Z,6.13
2018-07-23T10:56:26.316Z,6.43
2018-07-23T10:58:53.940Z,6.17
2018-07-23T11:01:21.570Z,6.07
2018-07-23T11:03:49.228Z,6.40
2018-07-23T11:06:16.809Z,8.80
2018-07-23T11:08:44.369Z,6.47
2018-07-23T11:11:11.928Z,6.17
2018-07-23T11:13:39.549Z,5.80
2018-07-23T11:16:07.133Z,5.90
2018-07-23T11:18:34.777Z,6.70
2018-07-23T11:21:02.458Z,5.37
2018-07-23T11:23:30.090Z,9.87
2018-07-23T11:25:57.649Z,6.10
2018-07-23T11:28:25.271Z,8.27
2018-07-23T11:30:52.877Z,7.70
2018-07-23T11:33:20.497Z,5.23
2018-07-23T11:35:48.075Z,6.73
2018-07-23T11:38:15.676Z,5.23
2018-07-23T11:40:43.259Z,8.00
2018-07-23T11:43:10.834Z,6.60
2018-07-23T11:45:38.441Z,8.63
2018-07-23T11:48:06.015Z,10.20
2018-07-23T11:50:33.691Z,6.63
2018-07-23T11:53:01.288Z,5.37
2018-07-23T11:55:28.810Z,4.70
2018-07-23T11:57:56.428Z,5.87
2018-07-23T12:00:23.980Z,5.50
2018-07-23T12:02:51.578Z,3.70
2018-07-23T12:05:19.154Z,4.30
2018-07-23T12:07:46.750Z,5.33
2018-07-23T12:10:14.306Z,4.50
2018-07-23T12:12:42.316Z,8.30
2018-07-23T12:15:10.082Z,7.33
2018-07-23T12:17:37.850Z,5.00
2018-07-23T12:20:05.736Z,5.33
2018-07-23T12:22:33.342Z,5.37
2018-07-23T12:25:01.102Z,7.90
2018-07-23T12:27:28.675Z,5.23
2018-07-23T12:29:56.397Z,14.40
2018-07-23T12:32:23.950Z,8.23
2018-07-23T12:34:51.593Z,5.37
2018-07-23T12:37:19.213Z,6.10
2018-07-23T12:39:46.881Z,7.50
2018-07-23T12:42:14.425Z,5.70
2018-07-23T12:44:42.012Z,5.43
2018-07-23T12:47:09.699Z,9.53
2018-07-23T12:49:37.312Z,4.17
2018-07-23T12:52:04.896Z,4.43
2018-07-23T12:54:32.453Z,3.70
2018-07-23T12:57:00.043Z,5.53
2018-07-23T12:59:27.685Z,5.57
2018-07-23T13:01:55.281Z,5.53
2018-07-23T13:04:22.952Z,5.60
2018-07-23T13:06:50.569Z,7.10
2018-07-23T13:09:18.167Z,5.03
2018-07-23T13:11:45.709Z,6.33
2018-07-23T13:14:13.381Z,6.30
2018-07-23T13:16:40.944Z,9.90
2018-07-23T13:19:08.579Z,6.60
2018-07-23T13:21:36.103Z,6.40
2018-07-23T13:24:03.718Z,10.93
2018-07-23T13:26:31.428Z,8.23
2018-07-23T13:28:59.691Z,5.50
2018-07-23T13:31:27.367Z,12.20
2018-07-23T13:33:54.961Z,7.73
2018-07-23T13:36:22.872Z,5.10
2018-07-23T13:38:50.496Z,5.17
2018-07-23T13:41:18.071Z,4.50
2018-07-23T13:43:45.664Z,5.27
2018-07-23T13:46:13.394Z,5.13
2018-07-23T13:48:41.042Z,10.70
2018-07-23T13:51:08.608Z,4.97
2018-07-23T13:53:36.241Z,4.77
2018-07-23T13:56:03.849Z,5.67
2018-07-23T13:58:31.480Z,5.10
2018-07-23T14:00:59.049Z,8.27
2018-07-23T14:03:26.628Z,6.93
2018-07-23T14:05:54.349Z,5.80
2018-07-23T14:08:21.947Z,5.87
2018-07-23T14:10:49.556Z,5.17
2018-07-23T14:13:17.241Z,8.30
2018-07-23T14:15:44.806Z,5.47
2018-07-23T14:18:12.394Z,4.17
2018-07-23T14:20:40.021Z,4.77
2018-07-23T14:23:07.685Z,6.10
2018-07-23T14:25:35.354Z,3.97
2018-07-23T14:28:03.010Z,8.23
2018-07-23T14:30:30.703Z,3.50
2018-07-23T14:32:58.276Z,4.90
2018-07-23T14:35:25.904Z,4.50
2018-07-23T14:37:53.443Z,3.93
2018-07-23T14:40:21.046Z,7.43
2018-07-23T14:42:48.646Z,4.63
2018-07-23T14:45:16.313Z,4.10
2018-07-23T14:47:43.945Z,4.60
2018-07-23T14:50:11.551Z,7.17
2018-07-23T14:52:39.280Z,4.20
2018-07-23T14:55:06.915Z,4.70
2018-07-23T14:57:34.644Z,4.80
2018-07-23T15:00:02.282Z,4.00
2018-07-23T15:02:29.899Z,3.87
2018-07-23T15:04:57.607Z,6.70
2018-07-23T15:07:25.315Z,4.20
2018-07-23T15:09:52.950Z,5.30
2018-07-23T15:12:20.630Z,4.00
2018-07-23T15:14:48.233Z,4.47
2018-07-23T15:17:15.924Z,4.43
2018-07-23T15:19:43.508Z,7.70
2018-07-23T15:22:11.269Z,4.23
2018-07-23T15:24:38.852Z,6.50
2018-07-23T15:27:06.738Z,8.23
2018-07-23T15:29:34.494Z,4.87
2018-07-23T15:32:02.354Z,5.87
2018-07-23T15:34:30.170Z,5.30
2018-07-23T15:36:57.938Z,4.70
2018-07-23T15:39:25.586Z,4.03
2018-07-23T15:41:53.433Z,4.40
2018-07-23T15:44:21.303Z,4.43
2018-07-23T15:46:48.826Z,6.27
2018-07-23T15:49:16.530Z,6.37
2018-07-23T15:51:44.519Z,11.27
2018-07-23T15:54:12.104Z,3.97
2018-07-23T15:56:39.799Z,4.30
2018-07-23T15:59:07.437Z,4.17
2018-07-23T16:01:35.033Z,7.13
2018-07-23T16:04:02.705Z,5.10
2018-07-23T16:06:30.289Z,6.30
2018-07-23T16:08:57.946Z,3.50
2018-07-23T16:11:25.609Z,3.50
2018-07-23T16:13:53.279Z,8.07
2018-07-23T16:16:21.093Z,4.10
2018-07-23T16:18:48.746Z,8.20
2018-07-23T16:21:16.365Z,4.13
2018-07-23T16:23:43.918Z,3.23
2018-07-23T16:26:11.538Z,4.30
2018-07-23T16:28:39.214Z,4.03
2018-07-23T16:31:06.797Z,3.90
2018-07-23T16:33:34.696Z,3.47
2018-07-23T16:36:02.321Z,3.50
2018-07-23T16:38:29.873Z,5.60
2018-07-23T16:40:57.479Z,6.83
2018-07-23T16:43:25.139Z,4.40
2018-07-23T16:45:52.719Z,7.43
2018-07-23T16:48:20.405Z,3.53
2018-07-23T16:50:48.060Z,5.40
2018-07-23T16:53:15.708Z,3.80
2018-07-23T16:55:43.242Z,5.03
2018-07-23T16:58:10.890Z,4.63
2018-07-23T17:00:38.551Z,3.60
2018-07-23T17:03:06.142Z,3.47
2018-07-23T17:05:34.613Z,7.03
2018-07-23T17:08:02.212Z,4.27
2018-07-23T17:10:29.822Z,3.90
2018-07-23T17:12:57.494Z,4.23
2018-07-23T17:15:25.098Z,3.90
2018-07-23T17:17:52.939Z,4.03
2018-07-23T17:20:20.549Z,6.67
2018-07-23T17:22:48.157Z,3.63
2018-07-23T17:25:15.795Z,9.70
2018-07-23T17:27:43.356Z,3.37
2018-07-23T17:30:10.984Z,4.20
2018-07-23T17:32:38.591Z,3.47
2018-07-23T17:35:06.153Z,4.30
2018-07-23T17:37:33.772Z,4.13
2018-07-23T17:40:01.383Z,3.40
2018-07-23T17:42:29.089Z,3.10
2018-07-23T17:44:56.684Z,3.23
2018-07-23T17:47:24.389Z,4.07
2018-07-23T17:49:52.066Z,3.87
2018-07-23T17:52:19.946Z,4.77
2018-07-23T17:54:47.592Z,6.23
2018-07-23T17:57:15.216Z,2.53
2018-07-23T17:59:42.846Z,3.40
2018-07-23T18:02:10.520Z,2.90
2018-07-23T18:04:38.201Z,4.40
2018-07-23T18:07:05.924Z,4.23
2018-07-23T18:09:33.592Z,6.27
2018-07-23T18:12:01.216Z,3.53
2018-07-23T18:14:29.198Z,4.73
2018-07-23T18:16:56.860Z,5.17
2018-07-23T18:19:24.808Z,4.30
2018-07-23T18:21:53.344Z,5.70
2018-07-23T18:24:21.069Z,3.53
2018-07-23T18:26:48.742Z,5.00
2018-07-23T18:29:21.070Z,2.90
2018-07-23T18:31:48.740Z,3.13
2018-07-23T18:34:16.426Z,5.43
2018-07-23T18:36:44.070Z,3.70
2018-07-23T18:39:12.349Z,3.60
2018-07-23T18:41:40.506Z,4.80
2018-07-23T18:44:08.575Z,6.97
2018-07-23T18:46:36.368Z,5.33
2018-07-23T18:49:33.319Z,3.60
2018-07-23T18:52:01.031Z,4.00
2018-07-23T18:54:29.760Z,4.90
2018-07-23T18:56:59.600Z,4.90
2018-07-23T18:59:27.218Z,5.67
2018-07-23T19:01:56.061Z,5.23
2018-07-23T19:04:23.725Z,10.03
2018-07-23T19:06:51.372Z,4.37
2018-07-23T19:09:20.244Z,4.93
2018-07-23T19:11:49.112Z,6.50
2018-07-23T19:14:17.190Z,4.47
2018-07-23T19:16:45.352Z,4.20
2018-07-23T19:19:13.048Z,5.00
2018-07-23T19:21:40.682Z,6.00
2018-07-23T19:24:08.331Z,5.17
2018-07-23T19:26:35.994Z,5.60
2018-07-23T19:29:03.646Z,6.50
2018-07-23T19:31:31.336Z,7.57
2018-07-23T19:34:00.246Z,6.83
2018-07-23T19:36:28.084Z,9.73
2018-07-23T19:38:56.034Z,12.53
2018-07-23T19:41:24.692Z,11.30
2018-07-23T19:43:52.631Z,7.63
2018-07-23T19:46:22.656Z,10.00
2018-07-23T19:48:50.258Z,8.13
2018-07-23T19:51:17.840Z,5.93
2018-07-23T19:53:45.460Z,6.70
2018-07-23T19:56:13.198Z,9.80
2018-07-23T19:58:41.507Z,8.40
2018-07-23T20:01:09.424Z,10.63
2018-07-23T20:03:37.074Z,4.40
2018-07-23T20:06:04.978Z,6.27
2018-07-23T20:08:32.765Z,7.67
2018-07-23T20:11:00.586Z,4.70
2018-07-23T20:13:28.379Z,7.40
2018-07-23T20:15:56.761Z,7.80
2018-07-23T20:18:24.583Z,4.30
2018-07-23T20:20:52.319Z,5.30
2018-07-23T20:23:20.040Z,11.13
2018-07-23T20:25:47.799Z,8.03
2018-07-23T20:28:15.583Z,7.77
2018-07-23T20:30:43.503Z,5.13
2018-07-23T20:33:11.266Z,4.60
2018-07-23T20:35:38.890Z,12.80
2018-07-23T20:38:06.599Z,7.13
2018-07-23T20:40:34.324Z,7.50
2018-07-23T20:43:01.987Z,7.63
2018-07-23T20:45:29.649Z,4.00
2018-07-23T20:47:57.712Z,6.47
2018-07-23T20:50:25.587Z,11.93
2018-07-23T20:52:53.192Z,4.70
2018-07-23T20:55:20.786Z,7.57
2018-07-23T20:57:48.428Z,10.67
2018-07-23T21:00:16.218Z,6.23
2018-07-23T21:02:43.738Z,7.57
2018-07-23T21:05:11.330Z,8.70
2018-07-23T21:07:38.962Z,6.50
2018-07-23T21:10:06.626Z,5.80
2018-07-23T21:12:34.241Z,9.63
2018-07-23T21:15:01.792Z,5.67
2018-07-23T21:17:29.405Z,6.37
2018-07-23T21:19:56.963Z,6.07
2018-07-23T21:22:24.609Z,5.57
2018-07-23T21:24:52.193Z,6.50
2018-07-23T21:27:19.792Z,5.50
2018-07-23T21:29:47.394Z,4.70
2018-07-23T21:32:15.249Z,5.83
2018-07-23T21:34:42.788Z,6.00
2018-07-23T21:37:10.412Z,7.43
2018-07-23T21:39:38.061Z,5.50
2018-07-23T21:42:05.921Z,5.03
2018-07-23T21:44:33.500Z,6.70
2018-07-23T21:47:01.108Z,7.57
2018-07-23T21:49:28.821Z,5.70
2018-07-23T21:51:56.562Z,6.00
2018-07-23T21:54:24.080Z,5.03
2018-07-23T21:56:51.682Z,6.60
2018-07-23T21:59:19.288Z,9.10
2018-07-23T22:01:46.910Z,4.67
2018-07-23T22:04:14.509Z,6.53
2018-07-23T22:06:42.116Z,4.27
2018-07-23T22:09:09.774Z,4.17
2018-07-23T22:11:37.476Z,4.67
2018-07-23T22:14:06.280Z,4.20
2018-07-23T22:16:33.842Z,5.70
2018-07-23T22:19:01.385Z,10.50
2018-07-23T22:21:29.003Z,4.57
2018-07-23T22:23:56.522Z,5.07
2018-07-23T22:26:24.091Z,7.00
2018-07-23T22:28:51.651Z,7.50
2018-07-23T22:31:19.278Z,5.67
2018-07-23T22:33:46.969Z,5.30
2018-07-23T22:36:14.480Z,14.60
2018-07-23T22:38:41.974Z,19.67
2018-07-23T22:41:09.566Z,26.47
2018-07-23T22:43:37.200Z,25.33
2018-07-23T22:46:04.780Z,29.57
2018-07-23T22:48:32.539Z,18.13
2018-07-23T22:51:00.390Z,24.53
2018-07-23T22:53:27.958Z,13.33
2018-07-23T22:55:55.437Z,20.03
2018-07-23T22:58:23.000Z,6.17
2018-07-23T23:00:50.549Z,9.27
2018-07-23T23:03:18.095Z,14.43
2018-07-23T23:05:45.664Z,12.23
2018-07-23T23:08:13.165Z,8.90
2018-07-23T23:10:40.885Z,10.83
2018-07-23T23:13:08.417Z,16.33
2018-07-23T23:15:35.945Z,21.70
2018-07-23T23:18:03.489Z,42.67
2018-07-23T23:20:31.075Z,37.67
2018-07-23T23:22:58.950Z,44.23
2018-07-23T23:25:26.544Z,40.57
2018-07-23T23:27:54.104Z,34.03
2018-07-23T23:30:21.705Z,27.73
2018-07-23T23:32:49.304Z,24.83
2018-07-23T23:35:16.845Z,21.30
2018-07-23T23:37:44.348Z,16.07
2018-07-23T23:40:11.949Z,12.33
2018-07-23T23:42:39.474Z,20.80
2018-07-23T23:45:07.028Z,14.50
2018-07-23T23:47:34.554Z,11.57
2018-07-23T23:50:02.159Z,14.20
2018-07-23T23:52:29.737Z,9.87
2018-07-23T23:54:57.291Z,10.63
2018-07-23T23:57:24.875Z,10.90
2018-07-23T23:59:52.521Z,8.27
